createdAt,value
2017-01-07T00:01:01.819Z,0
2017-01-07T00:02:07.012Z,0
2017-01-07T00:03:13.172Z,0
2017-01-07T00:04:18.370Z,0
2017-01-07T00:05:23.565Z,0
2017-01-07T00:06:27.801Z,0
2017-01-07T00:07:33.962Z,0
2017-01-07T00:08:39.201Z,0
2017-01-07T00:09:42.413Z,0
2017-01-07T00:10:47.601Z,0
2017-01-07T00:11:52.593Z,0
2017-01-07T00:12:55.823Z,0
2017-01-07T00:14:01.017Z,0
2017-01-07T00:15:07.177Z,0
2017-01-07T00:16:11.409Z,0
2017-01-07T00:17:17.562Z,0
2017-01-07T00:18:21.788Z,0
2017-01-07T00:19:27.957Z,0
2017-01-07T00:20:33.151Z,0
2017-01-07T00:21:36.396Z,0
2017-01-07T00:22:41.579Z,0
2017-01-07T00:23:47.778Z,0
2017-01-07T00:24:51.953Z,0
2017-01-07T00:25:57.143Z,0
2017-01-07T00:27:02.384Z,0
2017-01-07T00:28:07.575Z,0
2017-01-07T00:29:13.739Z,0
2017-01-07T00:30:19.904Z,0
2017-01-07T00:31:25.108Z,0
2017-01-07T00:32:30.302Z,0
2017-01-07T00:33:34.525Z,0
2017-01-07T00:34:40.710Z,0
2017-01-07T00:35:45.882Z,0
2017-01-07T00:36:51.085Z,0
2017-01-07T00:37:55.414Z,0
2017-01-07T00:39:00.613Z,0
2017-01-07T00:40:06.792Z,0
2017-01-07T00:41:12.950Z,0
2017-01-07T00:42:19.161Z,0
2017-01-07T00:43:23.359Z,0
2017-01-07T00:44:28.528Z,0
2017-01-07T00:45:34.704Z,0
2017-01-07T00:46:38.908Z,0
2017-01-07T00:47:45.085Z,0
2017-01-07T00:48:50.284Z,0
2017-01-07T00:49:56.447Z,0
2017-01-07T00:51:01.643Z,0
2017-01-07T00:52:06.818Z,0
2017-01-07T00:53:12.018Z,0
2017-01-07T00:54:16.249Z,0
2017-01-07T00:55:22.494Z,0
2017-01-07T00:56:25.718Z,0
2017-01-07T00:57:30.925Z,0
2017-01-07T00:58:37.086Z,0
2017-01-07T00:59:43.260Z,0
2017-01-07T01:00:48.453Z,0
2017-01-07T01:01:53.701Z,0
2017-01-07T01:02:58.890Z,0
2017-01-07T01:04:02.238Z,0
2017-01-07T01:05:07.464Z,0
2017-01-07T01:06:12.624Z,0
2017-01-07T01:07:16.874Z,0
2017-01-07T01:08:23.113Z,0
2017-01-07T01:09:29.271Z,0
2017-01-07T01:10:35.551Z,0
2017-01-07T01:11:41.711Z,0
2017-01-07T01:12:46.913Z,0
2017-01-07T01:13:53.066Z,0
2017-01-07T01:14:59.231Z,0
2017-01-07T01:16:04.410Z,0
2017-01-07T01:17:09.608Z,0
2017-01-07T01:18:15.770Z,0
2017-01-07T01:19:20.943Z,0
2017-01-07T01:20:26.142Z,0
2017-01-07T01:21:32.305Z,0
2017-01-07T01:22:37.495Z,0
2017-01-07T01:23:43.655Z,0
2017-01-07T01:24:47.966Z,0
2017-01-07T01:25:52.169Z,0
2017-01-07T01:26:58.326Z,0
2017-01-07T01:28:03.624Z,0
2017-01-07T01:29:09.777Z,0
2017-01-07T01:30:15.934Z,0
2017-01-07T01:31:21.124Z,0
2017-01-07T01:32:26.440Z,0
2017-01-07T01:33:30.629Z,0
2017-01-07T01:34:35.822Z,0
2017-01-07T01:35:41.427Z,0
2017-01-07T01:36:47.692Z,0
2017-01-07T01:37:53.844Z,0
2017-01-07T01:38:59.039Z,0
2017-01-07T01:40:03.252Z,0
2017-01-07T01:41:09.411Z,0
2017-01-07T01:42:14.608Z,0
2017-01-07T01:43:18.389Z,0
2017-01-07T01:44:24.560Z,0
2017-01-07T01:45:27.926Z,0
2017-01-07T01:46:33.118Z,0
2017-01-07T01:47:39.281Z,0
2017-01-07T01:48:45.442Z,0
2017-01-07T01:49:50.604Z,0
2017-01-07T01:50:54.840Z,0
2017-01-07T01:52:01.011Z,0
2017-01-07T01:53:06.207Z,0
2017-01-07T01:54:11.429Z,0
2017-01-07T01:55:16.620Z,0
2017-01-07T01:56:21.819Z,0
2017-01-07T01:57:27.983Z,0
2017-01-07T01:58:32.195Z,0
2017-01-07T01:59:37.372Z,0
2017-01-07T02:00:42.570Z,0
2017-01-07T02:01:47.733Z,0
2017-01-07T02:02:53.893Z,0
2017-01-07T02:04:00.055Z,0
2017-01-07T02:05:05.245Z,0
2017-01-07T02:06:10.468Z,0
2017-01-07T02:07:16.706Z,0
2017-01-07T02:08:20.939Z,0
2017-01-07T02:09:25.155Z,0
2017-01-07T02:10:31.312Z,0
2017-01-07T02:11:36.516Z,0
2017-01-07T02:12:40.712Z,0
2017-01-07T02:13:45.916Z,0
2017-01-07T02:14:51.145Z,0
2017-01-07T02:15:56.341Z,0
2017-01-07T02:17:02.499Z,0
2017-01-07T02:18:06.794Z,0
2017-01-07T02:19:11.989Z,0
2017-01-07T02:20:16.217Z,0
2017-01-07T02:21:22.396Z,0
2017-01-07T02:22:28.552Z,0
2017-01-07T02:23:34.713Z,0
2017-01-07T02:24:40.884Z,0
2017-01-07T02:25:46.087Z,0
2017-01-07T02:26:52.237Z,0
2017-01-07T02:27:57.429Z,0
2017-01-07T02:29:02.612Z,0
2017-01-07T02:30:07.819Z,0
2017-01-07T02:31:13.987Z,0
2017-01-07T02:32:19.252Z,0
2017-01-07T02:33:23.441Z,0
2017-01-07T02:34:29.592Z,0
2017-01-07T02:35:34.785Z,0
2017-01-07T02:36:39.986Z,0
2017-01-07T02:37:45.178Z,0
2017-01-07T02:38:50.397Z,0
2017-01-07T02:39:55.696Z,0
2017-01-07T02:40:59.924Z,0
2017-01-07T02:42:03.121Z,0
2017-01-07T02:43:08.309Z,0
2017-01-07T02:44:11.572Z,0
2017-01-07T02:45:16.853Z,0
2017-01-07T02:46:23.011Z,0
2017-01-07T02:47:29.190Z,0
2017-01-07T02:48:35.346Z,0
2017-01-07T02:49:41.524Z,0
2017-01-07T02:50:46.715Z,0
2017-01-07T02:51:52.965Z,0
2017-01-07T02:52:59.151Z,0
2017-01-07T02:54:04.404Z,0
2017-01-07T02:55:09.592Z,0
2017-01-07T02:56:13.795Z,0
2017-01-07T02:57:18.018Z,0
2017-01-07T02:58:24.232Z,0
2017-01-07T02:59:30.395Z,0
2017-01-07T03:00:35.614Z,0
2017-01-07T03:01:41.771Z,0
2017-01-07T03:02:48.032Z,0
2017-01-07T03:03:52.244Z,0
2017-01-07T03:04:56.447Z,0
2017-01-07T03:06:01.648Z,0
2017-01-07T03:07:07.811Z,0
2017-01-07T03:08:11.033Z,0
2017-01-07T03:09:16.223Z,0
2017-01-07T03:10:21.419Z,0
2017-01-07T03:11:26.613Z,0
2017-01-07T03:12:32.778Z,0
2017-01-07T03:13:37.976Z,0
2017-01-07T03:14:42.211Z,0
2017-01-07T03:15:47.377Z,0
2017-01-07T03:16:53.585Z,0
2017-01-07T03:17:57.787Z,0
2017-01-07T03:19:03.012Z,0
2017-01-07T03:20:07.259Z,0
2017-01-07T03:21:12.431Z,0
2017-01-07T03:22:17.622Z,0
2017-01-07T03:23:22.816Z,0
2017-01-07T03:24:27.977Z,0
2017-01-07T03:25:34.141Z,0
2017-01-07T03:26:40.314Z,0
2017-01-07T03:27:46.471Z,0
2017-01-07T03:28:52.654Z,0
2017-01-07T03:29:58.568Z,0
2017-01-07T03:31:03.864Z,0
2017-01-07T03:32:06.139Z,0
2017-01-07T03:33:11.333Z,0
2017-01-07T03:34:17.496Z,0
2017-01-07T03:35:23.689Z,0
2017-01-07T03:36:29.829Z,0
2017-01-07T03:37:35.987Z,0
2017-01-07T03:38:40.219Z,0
2017-01-07T03:39:45.412Z,0
2017-01-07T03:40:51.568Z,0
2017-01-07T03:41:55.796Z,0
2017-01-07T03:43:01.956Z,0
2017-01-07T03:44:08.169Z,0
2017-01-07T03:45:14.279Z,0
2017-01-07T03:46:20.496Z,0
2017-01-07T03:47:25.665Z,0
2017-01-07T03:48:31.854Z,0
2017-01-07T03:49:37.982Z,0
2017-01-07T03:50:44.279Z,0
2017-01-07T03:51:49.484Z,0
2017-01-07T03:52:54.963Z,0
2017-01-07T03:54:01.125Z,0
2017-01-07T03:55:06.320Z,0
2017-01-07T03:56:12.455Z,0
2017-01-07T03:57:18.617Z,0
2017-01-07T03:58:24.771Z,0
2017-01-07T03:59:30.934Z,0
2017-01-07T04:00:35.160Z,0
2017-01-07T04:01:40.374Z,0
2017-01-07T04:02:46.537Z,0
2017-01-07T04:03:51.721Z,0
2017-01-07T04:04:56.914Z,0
2017-01-07T04:06:00.177Z,0
2017-01-07T04:07:06.343Z,0
2017-01-07T04:08:11.643Z,0
2017-01-07T04:09:15.840Z,0
2017-01-07T04:10:20.062Z,0
2017-01-07T04:11:26.233Z,0
2017-01-07T04:12:31.415Z,0
2017-01-07T04:13:37.577Z,0
2017-01-07T04:14:42.776Z,0
2017-01-07T04:15:49.019Z,0
2017-01-07T04:16:54.549Z,0
2017-01-07T04:18:00.706Z,0
2017-01-07T04:19:04.931Z,0
2017-01-07T04:20:10.103Z,0
2017-01-07T04:21:16.265Z,0
2017-01-07T04:22:19.495Z,0
2017-01-07T04:23:23.514Z,0
2017-01-07T04:24:27.781Z,0
2017-01-07T04:25:34.048Z,0
2017-01-07T04:26:38.878Z,0
2017-01-07T04:27:45.091Z,0
2017-01-07T04:28:51.248Z,0
2017-01-07T04:29:56.454Z,0
2017-01-07T04:31:02.616Z,0
2017-01-07T04:32:08.778Z,0
2017-01-07T04:33:13.978Z,0
2017-01-07T04:34:19.154Z,0
2017-01-07T04:35:24.328Z,0
2017-01-07T04:36:29.522Z,0
2017-01-07T04:37:35.803Z,0
2017-01-07T04:38:41.027Z,0
2017-01-07T04:39:44.951Z,0
2017-01-07T04:40:50.152Z,0
2017-01-07T04:41:55.345Z,0
2017-01-07T04:43:01.500Z,0
2017-01-07T04:44:07.661Z,0
2017-01-07T04:45:12.878Z,0
2017-01-07T04:46:18.096Z,0
2017-01-07T04:47:23.252Z,0
2017-01-07T04:48:28.446Z,0
2017-01-07T04:49:33.641Z,0
2017-01-07T04:50:39.831Z,0
2017-01-07T04:51:45.031Z,0
2017-01-07T04:52:49.258Z,0
2017-01-07T04:53:54.510Z,0
2017-01-07T04:55:00.688Z,0
2017-01-07T04:56:04.888Z,0
2017-01-07T04:57:08.124Z,0
2017-01-07T04:58:13.325Z,0
2017-01-07T04:59:16.594Z,0
2017-01-07T05:00:21.835Z,0
2017-01-07T05:01:27.675Z,0
2017-01-07T05:02:32.877Z,0
2017-01-07T05:03:38.097Z,0
2017-01-07T05:04:43.292Z,0
2017-01-07T05:05:49.522Z,0
2017-01-07T05:06:55.680Z,0
2017-01-07T05:07:59.892Z,0
2017-01-07T05:09:05.084Z,0
2017-01-07T05:10:11.247Z,0
2017-01-07T05:11:15.478Z,0
2017-01-07T05:12:21.090Z,0
2017-01-07T05:13:27.254Z,0
2017-01-07T05:14:31.541Z,0
2017-01-07T05:15:36.740Z,0
2017-01-07T05:16:41.926Z,0
2017-01-07T05:17:45.154Z,0
2017-01-07T05:18:51.315Z,0
2017-01-07T05:19:57.469Z,0
2017-01-07T05:21:03.635Z,0
2017-01-07T05:22:09.795Z,0
2017-01-07T05:23:14.958Z,0
2017-01-07T05:24:20.142Z,0
2017-01-07T05:25:24.437Z,0
2017-01-07T05:26:30.555Z,0
2017-01-07T05:27:36.718Z,0
2017-01-07T05:28:41.915Z,0
2017-01-07T05:29:46.111Z,0
2017-01-07T05:30:51.308Z,0
2017-01-07T05:31:57.469Z,0
2017-01-07T05:33:01.664Z,0
2017-01-07T05:34:06.851Z,0
2017-01-07T05:35:11.110Z,0
2017-01-07T05:36:16.303Z,0
2017-01-07T05:37:22.524Z,0
2017-01-07T05:38:27.716Z,0
2017-01-07T05:39:32.895Z,0
2017-01-07T05:40:39.077Z,0
2017-01-07T05:41:42.336Z,0
2017-01-07T05:42:47.531Z,0
2017-01-07T05:43:53.713Z,0
2017-01-07T05:44:58.871Z,0
2017-01-07T05:46:04.072Z,0
2017-01-07T05:47:10.237Z,0
2017-01-07T05:48:16.388Z,0
2017-01-07T05:49:21.586Z,0
2017-01-07T05:50:27.757Z,0
2017-01-07T05:51:33.115Z,0
2017-01-07T05:52:38.309Z,0
2017-01-07T05:53:42.613Z,0
2017-01-07T05:54:46.840Z,0
2017-01-07T05:55:51.067Z,0
2017-01-07T05:56:57.228Z,0
2017-01-07T05:58:03.406Z,0
2017-01-07T05:59:09.606Z,0
2017-01-07T06:00:15.765Z,0
2017-01-07T06:01:21.923Z,0
2017-01-07T06:02:26.152Z,0
2017-01-07T06:03:30.418Z,0
2017-01-07T06:04:35.613Z,0
2017-01-07T06:05:40.777Z,0
2017-01-07T06:06:44.024Z,0
2017-01-07T06:07:50.190Z,0
2017-01-07T06:08:55.486Z,0
2017-01-07T06:10:00.681Z,0
2017-01-07T06:11:05.881Z,0
2017-01-07T06:12:12.045Z,0
2017-01-07T06:13:16.240Z,0
2017-01-07T06:14:21.414Z,0
2017-01-07T06:15:25.652Z,0
2017-01-07T06:16:30.841Z,0
2017-01-07T06:17:36.999Z,0
2017-01-07T06:18:43.200Z,0
2017-01-07T06:19:49.330Z,0
2017-01-07T06:20:55.486Z,0
2017-01-07T06:22:01.643Z,0
2017-01-07T06:23:05.987Z,0
2017-01-07T06:24:11.777Z,0
2017-01-07T06:25:15.975Z,0
2017-01-07T06:26:20.233Z,0
2017-01-07T06:27:25.413Z,0
2017-01-07T06:28:30.603Z,0
2017-01-07T06:29:35.828Z,0
2017-01-07T06:30:40.991Z,0
2017-01-07T06:31:45.184Z,0
2017-01-07T06:32:51.341Z,0
2017-01-07T06:33:57.499Z,0
2017-01-07T06:35:02.695Z,0
2017-01-07T06:36:08.574Z,0
2017-01-07T06:37:11.836Z,0
2017-01-07T06:38:18.038Z,0
2017-01-07T06:39:23.223Z,0
2017-01-07T06:40:29.390Z,0
2017-01-07T06:41:33.611Z,0
2017-01-07T06:42:38.799Z,0
2017-01-07T06:43:44.067Z,0
2017-01-07T06:44:49.505Z,0
2017-01-07T06:45:53.719Z,0
2017-01-07T06:46:59.884Z,0
2017-01-07T06:48:06.047Z,0
2017-01-07T06:49:11.887Z,0
2017-01-07T06:50:18.011Z,0
2017-01-07T06:51:24.171Z,0
2017-01-07T06:52:28.499Z,0
2017-01-07T06:53:31.720Z,0
2017-01-07T06:54:35.935Z,0
2017-01-07T06:55:42.103Z,0
2017-01-07T06:56:47.305Z,0
2017-01-07T06:57:53.561Z,0
2017-01-07T06:58:59.717Z,0
2017-01-07T07:00:05.879Z,0
2017-01-07T07:01:11.091Z,0
2017-01-07T07:02:17.252Z,0
2017-01-07T07:03:23.444Z,4
2017-01-07T07:04:29.685Z,4
2017-01-07T07:05:34.859Z,0
2017-01-07T07:06:40.084Z,4
2017-01-07T07:07:46.250Z,4
2017-01-07T07:08:51.470Z,4
2017-01-07T07:09:56.721Z,4
2017-01-07T07:11:01.889Z,4
2017-01-07T07:12:07.055Z,8
2017-01-07T07:13:12.254Z,8
2017-01-07T07:14:17.462Z,8
2017-01-07T07:15:23.628Z,8
2017-01-07T07:16:28.822Z,8
2017-01-07T07:17:33.006Z,12
2017-01-07T07:18:38.280Z,12
2017-01-07T07:19:44.443Z,16
2017-01-07T07:20:49.699Z,20
2017-01-07T07:21:53.932Z,24
2017-01-07T07:22:59.099Z,24
2017-01-07T07:24:05.250Z,28
2017-01-07T07:25:09.499Z,28
2017-01-07T07:26:13.790Z,32
2017-01-07T07:27:18.968Z,36
2017-01-07T07:28:25.128Z,40
2017-01-07T07:29:28.475Z,40
2017-01-07T07:30:34.593Z,44
2017-01-07T07:31:39.792Z,48
2017-01-07T07:32:44.993Z,52
2017-01-07T07:33:49.183Z,56
2017-01-07T07:34:55.380Z,56
2017-01-07T07:36:01.508Z,60
2017-01-07T07:37:07.720Z,64
2017-01-07T07:38:13.847Z,64
2017-01-07T07:39:18.084Z,72
2017-01-07T07:40:23.259Z,76
2017-01-07T07:41:29.423Z,76
2017-01-07T07:42:34.666Z,80
2017-01-07T07:43:40.826Z,84
2017-01-07T07:44:46.052Z,92
2017-01-07T07:45:51.243Z,96
2017-01-07T07:46:57.403Z,104
2017-01-07T07:48:01.624Z,112
2017-01-07T07:49:07.850Z,124
2017-01-07T07:50:14.035Z,132
2017-01-07T07:51:19.221Z,140
2017-01-07T07:52:24.426Z,156
2017-01-07T07:53:30.568Z,172
2017-01-07T07:54:33.876Z,184
2017-01-07T07:55:38.117Z,200
2017-01-07T07:56:42.351Z,208
2017-01-07T07:57:45.582Z,216
2017-01-07T07:58:49.809Z,228
2017-01-07T07:59:54.999Z,236
2017-01-07T08:00:59.192Z,256
2017-01-07T08:02:05.340Z,284
2017-01-07T08:03:10.541Z,324
2017-01-07T08:04:16.815Z,368
2017-01-07T08:05:22.967Z,396
2017-01-07T08:06:28.160Z,408
2017-01-07T08:07:33.389Z,408
2017-01-07T08:08:37.592Z,400
2017-01-07T08:09:42.488Z,396
2017-01-07T08:10:48.652Z,396
2017-01-07T08:11:52.882Z,404
2017-01-07T08:12:59.051Z,416
2017-01-07T08:14:04.278Z,440
2017-01-07T08:15:08.484Z,456
2017-01-07T08:16:14.646Z,476
2017-01-07T08:17:20.808Z,496
2017-01-07T08:18:26.003Z,516
2017-01-07T08:19:32.274Z,524
2017-01-07T08:20:37.441Z,544
2017-01-07T08:21:43.611Z,548
2017-01-07T08:22:47.808Z,564
2017-01-07T08:23:52.034Z,572
2017-01-07T08:24:57.221Z,584
2017-01-07T08:26:01.462Z,596
2017-01-07T08:27:07.660Z,636
2017-01-07T08:28:12.860Z,688
2017-01-07T08:29:18.043Z,716
2017-01-07T08:30:23.243Z,740
2017-01-07T08:31:29.406Z,760
2017-01-07T08:32:35.566Z,784
2017-01-07T08:33:41.727Z,820
2017-01-07T08:34:47.920Z,844
2017-01-07T08:35:54.053Z,848
2017-01-07T08:37:00.302Z,880
2017-01-07T08:38:06.434Z,852
2017-01-07T08:39:11.624Z,856
2017-01-07T08:40:17.789Z,856
2017-01-07T08:41:23.948Z,868
2017-01-07T08:42:28.147Z,952
2017-01-07T08:44:38.529Z,1168
2017-01-07T08:45:44.703Z,1288
2017-01-07T08:46:49.901Z,1376
2017-01-07T08:47:56.063Z,1492
2017-01-07T08:49:01.256Z,1584
2017-01-07T08:50:25.640Z,1704
2017-01-07T08:51:30.828Z,1728
2017-01-07T08:52:35.023Z,1820
2017-01-07T08:53:41.194Z,1708
2017-01-07T08:54:47.356Z,1728
2017-01-07T08:55:53.518Z,1716
2017-01-07T08:56:59.675Z,1688
2017-01-07T08:58:05.849Z,1756
2017-01-07T08:59:11.040Z,1960
2017-01-07T09:00:15.238Z,2144
2017-01-07T09:01:19.480Z,2364
2017-01-07T09:02:25.704Z,2560
2017-01-07T09:03:30.894Z,2764
2017-01-07T09:04:35.125Z,2796
2017-01-07T09:05:41.277Z,2856
2017-01-07T09:06:46.606Z,2952
2017-01-07T09:07:52.678Z,3060
2017-01-07T09:08:58.900Z,3052
2017-01-07T09:10:05.470Z,2964
2017-01-07T09:11:11.695Z,2968
2017-01-07T09:12:17.853Z,2992
2017-01-07T09:13:24.020Z,3152
2017-01-07T09:14:29.710Z,3208
2017-01-07T09:15:35.492Z,3356
2017-01-07T09:16:42.100Z,3284
2017-01-07T09:17:48.363Z,3396
2017-01-07T09:18:52.613Z,3204
2017-01-07T09:19:56.806Z,3304
2017-01-07T09:21:01.036Z,3200
2017-01-07T09:22:04.291Z,3176
2017-01-07T09:23:10.556Z,2932
2017-01-07T09:24:16.709Z,2852
2017-01-07T09:25:22.873Z,2936
2017-01-07T09:26:28.104Z,2956
2017-01-07T09:27:34.237Z,3024
2017-01-07T09:28:39.461Z,3236
2017-01-07T09:29:45.669Z,3340
2017-01-07T09:30:51.793Z,4016
2017-01-07T09:31:57.959Z,4688
2017-01-07T09:33:03.152Z,4764
2017-01-07T09:34:07.379Z,4552
2017-01-07T09:35:12.565Z,4116
2017-01-07T09:36:18.722Z,3264
2017-01-07T09:37:24.883Z,3000
2017-01-07T09:38:30.086Z,2584
2017-01-07T09:39:35.281Z,2616
2017-01-07T09:40:39.504Z,2456
2017-01-07T09:41:45.692Z,2324
2017-01-07T09:42:50.887Z,2284
2017-01-07T09:43:56.057Z,2304
2017-01-07T09:45:02.354Z,2376
2017-01-07T09:46:07.506Z,2196
2017-01-07T09:47:13.680Z,2284
2017-01-07T09:48:17.934Z,2492
2017-01-07T09:49:23.145Z,2664
2017-01-07T09:50:28.343Z,2504
2017-01-07T09:51:33.559Z,2548
2017-01-07T09:52:38.822Z,2200
2017-01-07T09:53:42.978Z,2112
2017-01-07T09:54:48.199Z,1856
2017-01-07T09:55:54.371Z,1860
2017-01-07T09:57:00.531Z,1844
2017-01-07T09:58:05.730Z,1888
2017-01-07T09:59:10.924Z,2016
2017-01-07T10:00:17.086Z,1996
2017-01-07T10:01:23.277Z,2012
2017-01-07T10:02:29.442Z,1992
2017-01-07T10:03:35.672Z,1976
2017-01-07T10:04:40.862Z,2040
2017-01-07T10:05:46.069Z,2124
2017-01-07T10:06:52.227Z,2120
2017-01-07T10:07:55.539Z,2124
2017-01-07T10:08:58.859Z,1976
2017-01-07T10:10:05.015Z,1860
2017-01-07T10:11:11.283Z,1740
2017-01-07T10:12:17.442Z,1800
2017-01-07T10:13:22.653Z,1916
2017-01-07T10:14:28.813Z,1904
2017-01-07T10:15:34.015Z,1900
2017-01-07T10:16:40.176Z,1920
2017-01-07T10:17:45.354Z,1716
2017-01-07T10:18:49.552Z,1612
2017-01-07T10:19:55.712Z,1564
2017-01-07T10:21:01.880Z,1580
2017-01-07T10:22:07.068Z,1636
2017-01-07T10:23:13.240Z,1712
2017-01-07T10:24:18.443Z,1656
2017-01-07T10:25:21.673Z,1692
2017-01-07T10:26:25.900Z,1732
2017-01-07T10:27:31.166Z,1680
2017-01-07T10:28:36.075Z,1632
2017-01-07T10:29:41.261Z,1632
2017-01-07T10:30:47.427Z,1736
2017-01-07T10:31:53.593Z,1792
2017-01-07T10:32:58.772Z,1908
2017-01-07T10:34:04.943Z,2012
2017-01-07T10:35:11.108Z,2040
2017-01-07T10:36:17.272Z,1988
2017-01-07T10:37:23.437Z,2036
2017-01-07T10:38:28.758Z,2060
2017-01-07T10:39:32.983Z,2224
2017-01-07T10:40:37.228Z,2376
2017-01-07T10:41:43.390Z,2596
2017-01-07T10:42:48.633Z,2916
2017-01-07T10:43:52.793Z,2832
2017-01-07T10:44:57.995Z,2636
2017-01-07T10:46:04.168Z,2480
2017-01-07T10:47:10.324Z,2340
2017-01-07T10:48:15.518Z,2508
2017-01-07T10:49:20.722Z,2688
2017-01-07T10:50:25.668Z,2820
2017-01-07T10:51:31.831Z,3088
2017-01-07T10:52:36.993Z,3152
2017-01-07T10:53:42.206Z,3184
2017-01-07T10:54:47.434Z,3228
2017-01-07T10:55:52.617Z,3084
2017-01-07T10:56:58.787Z,3060
2017-01-07T10:58:03.012Z,3060
2017-01-07T10:59:09.190Z,2948
2017-01-07T11:00:15.353Z,2848
2017-01-07T11:01:21.517Z,2728
2017-01-07T11:02:26.762Z,2600
2017-01-07T11:03:32.928Z,2464
2017-01-07T11:04:37.330Z,2508
2017-01-07T11:05:42.500Z,2484
2017-01-07T11:06:48.729Z,2576
2017-01-07T11:09:00.155Z,2864
2017-01-07T11:10:05.291Z,2996
2017-01-07T11:11:09.516Z,3012
2017-01-07T11:12:13.822Z,3012
2017-01-07T11:13:18.989Z,2920
2017-01-07T11:14:24.320Z,2756
2017-01-07T11:15:30.483Z,2536
2017-01-07T11:16:36.632Z,2464
2017-01-07T11:17:41.830Z,2500
2017-01-07T11:18:46.065Z,2564
2017-01-07T11:19:51.367Z,2456
2017-01-07T11:20:56.535Z,2396
2017-01-07T11:22:02.752Z,2316
2017-01-07T11:23:08.862Z,2260
2017-01-07T11:24:14.068Z,2288
2017-01-07T11:25:20.230Z,2268
2017-01-07T11:26:25.130Z,2388
2017-01-07T11:27:31.289Z,2352
2017-01-07T11:28:36.569Z,2256
2017-01-07T11:29:42.723Z,2312
2017-01-07T11:30:46.962Z,2340
2017-01-07T11:31:52.163Z,2304
2017-01-07T11:32:56.436Z,2400
2017-01-07T11:34:01.595Z,2468
2017-01-07T11:35:06.826Z,2560
2017-01-07T11:36:12.018Z,2664
2017-01-07T11:37:17.257Z,2620
2017-01-07T11:38:21.459Z,2564
2017-01-07T11:39:25.716Z,2516
2017-01-07T11:40:29.974Z,2568
2017-01-07T11:41:35.140Z,2652
2017-01-07T11:42:40.344Z,2544
2017-01-07T11:43:46.509Z,2400
2017-01-07T11:44:51.742Z,2356
2017-01-07T11:45:57.886Z,2452
2017-01-07T11:47:03.108Z,2552
2017-01-07T11:48:09.294Z,2584
2017-01-07T11:49:13.895Z,2644
2017-01-07T11:50:20.059Z,2832
2017-01-07T11:51:25.325Z,2884
2017-01-07T11:52:31.496Z,2984
2017-01-07T11:53:35.787Z,3012
2017-01-07T11:54:40.974Z,3036
2017-01-07T11:55:47.144Z,3132
2017-01-07T11:56:51.370Z,3332
2017-01-07T11:57:56.543Z,3504
2017-01-07T11:59:01.776Z,3800
2017-01-07T12:00:07.896Z,4028
2017-01-07T12:01:13.065Z,4184
2017-01-07T12:02:17.332Z,4100
2017-01-07T12:03:23.489Z,3892
2017-01-07T12:04:27.719Z,3572
2017-01-07T12:05:33.900Z,3424
2017-01-07T12:06:39.164Z,3368
2017-01-07T12:07:43.365Z,3152
2017-01-07T12:08:49.523Z,3164
2017-01-07T12:09:54.715Z,3036
2017-01-07T12:10:58.035Z,2892
2017-01-07T12:12:02.258Z,2916
2017-01-07T12:13:06.458Z,2984
2017-01-07T12:14:11.628Z,3196
2017-01-07T12:15:17.800Z,3044
2017-01-07T12:16:22.996Z,2760
2017-01-07T12:17:28.191Z,2692
2017-01-07T12:18:32.421Z,2492
2017-01-07T12:19:38.586Z,2480
2017-01-07T12:20:44.799Z,2416
2017-01-07T12:21:50.925Z,2260
2017-01-07T12:22:57.141Z,2016
2017-01-07T12:24:01.373Z,1928
2017-01-07T12:25:06.543Z,1900
2017-01-07T12:26:11.714Z,1804
2017-01-07T12:27:14.951Z,1808
2017-01-07T12:28:19.161Z,1768
2017-01-07T12:29:23.466Z,1676
2017-01-07T12:30:28.664Z,1572
2017-01-07T12:31:33.867Z,1572
2017-01-07T12:32:38.069Z,1516
2017-01-07T12:33:42.362Z,1436
2017-01-07T12:34:48.544Z,1484
2017-01-07T12:35:52.742Z,1520
2017-01-07T12:36:57.003Z,1536
2017-01-07T12:38:02.247Z,1484
2017-01-07T12:39:08.411Z,1572
2017-01-07T12:40:13.606Z,1564
2017-01-07T12:41:17.841Z,1576
2017-01-07T12:42:23.008Z,1536
2017-01-07T12:43:27.281Z,1532
2017-01-07T12:44:32.450Z,1392
2017-01-07T12:45:36.670Z,1428
2017-01-07T12:46:41.860Z,1452
2017-01-07T12:47:48.033Z,1324
2017-01-07T12:48:52.285Z,1324
2017-01-07T12:49:58.567Z,1404
2017-01-07T12:51:04.734Z,1416
2017-01-07T12:52:09.645Z,1332
2017-01-07T12:53:14.840Z,1336
2017-01-07T12:54:19.063Z,1360
2017-01-07T12:55:24.252Z,1272
2017-01-07T12:56:29.439Z,1300
2017-01-07T12:57:34.642Z,1276
2017-01-07T12:58:40.806Z,1220
2017-01-07T12:59:45.999Z,1324
2017-01-07T13:00:52.167Z,1252
2017-01-07T13:01:55.392Z,1228
2017-01-07T13:03:00.592Z,1152
2017-01-07T13:04:05.796Z,1192
2017-01-07T13:05:11.961Z,1136
2017-01-07T13:06:15.240Z,1128
2017-01-07T13:07:19.434Z,1168
2017-01-07T13:08:25.724Z,1180
2017-01-07T13:09:30.923Z,1056
2017-01-07T13:10:36.146Z,1108
2017-01-07T13:11:41.339Z,1064
2017-01-07T13:12:47.500Z,1108
2017-01-07T13:13:53.729Z,1108
2017-01-07T13:14:59.907Z,1120
2017-01-07T13:16:04.223Z,1024
2017-01-07T13:17:10.384Z,920
2017-01-07T13:18:15.573Z,988
2017-01-07T13:19:20.831Z,928
2017-01-07T13:20:27.000Z,888
2017-01-07T13:21:32.200Z,796
2017-01-07T13:22:38.352Z,820
2017-01-07T13:23:44.522Z,808
2017-01-07T13:24:50.809Z,796
2017-01-07T13:25:55.999Z,796
2017-01-07T13:27:02.180Z,748
2017-01-07T13:28:08.345Z,768
2017-01-07T13:29:13.540Z,796
2017-01-07T13:30:17.173Z,712
2017-01-07T13:31:23.337Z,768
2017-01-07T13:32:27.573Z,776
2017-01-07T13:33:32.774Z,824
2017-01-07T13:34:37.944Z,900
2017-01-07T13:35:44.102Z,860
2017-01-07T13:36:50.253Z,872
2017-01-07T13:37:56.426Z,868
2017-01-07T13:39:01.616Z,924
2017-01-07T13:40:07.778Z,928
2017-01-07T13:41:14.046Z,960
2017-01-07T13:42:20.208Z,932
2017-01-07T13:43:26.376Z,1016
2017-01-07T13:44:32.543Z,1064
2017-01-07T13:45:37.708Z,1148
2017-01-07T13:46:42.945Z,1164
2017-01-07T13:47:47.136Z,1180
2017-01-07T13:48:53.349Z,1184
2017-01-07T13:49:59.511Z,1160
2017-01-07T13:51:02.765Z,1196
2017-01-07T13:52:08.917Z,1244
2017-01-07T13:53:14.177Z,1180
2017-01-07T13:54:18.302Z,1188
2017-01-07T13:55:24.460Z,1208
2017-01-07T13:56:30.627Z,1204
2017-01-07T13:57:36.785Z,1248
2017-01-07T13:58:42.954Z,1216
2017-01-07T13:59:48.136Z,1092
2017-01-07T14:00:52.371Z,1020
2017-01-07T14:01:55.604Z,952
2017-01-07T14:03:01.765Z,1012
2017-01-07T14:04:06.960Z,1028
2017-01-07T14:05:12.127Z,1000
2017-01-07T14:06:16.982Z,972
2017-01-07T14:07:23.147Z,952
2017-01-07T14:08:26.440Z,1068
2017-01-07T14:09:30.620Z,1012
2017-01-07T14:10:35.813Z,988
2017-01-07T14:11:41.181Z,980
2017-01-07T14:12:46.475Z,944
2017-01-07T14:13:51.646Z,912
2017-01-07T14:14:54.905Z,992
2017-01-07T14:16:01.069Z,832
2017-01-07T14:17:06.272Z,816
2017-01-07T14:18:10.471Z,808
2017-01-07T14:19:16.640Z,756
2017-01-07T14:20:22.805Z,752
2017-01-07T14:21:28.969Z,628
2017-01-07T14:22:33.171Z,636
2017-01-07T14:23:36.396Z,652
2017-01-07T14:24:41.646Z,656
2017-01-07T14:25:45.843Z,624
2017-01-07T14:26:51.037Z,664
2017-01-07T14:27:57.199Z,628
2017-01-07T14:29:02.392Z,588
2017-01-07T14:30:08.551Z,596
2017-01-07T14:31:12.791Z,560
2017-01-07T14:32:17.983Z,536
2017-01-07T14:33:24.146Z,560
2017-01-07T14:34:29.332Z,548
2017-01-07T14:35:34.648Z,552
2017-01-07T14:36:40.815Z,520
2017-01-07T14:37:46.125Z,524
2017-01-07T14:38:51.297Z,552
2017-01-07T14:39:56.492Z,520
2017-01-07T14:41:02.664Z,496
2017-01-07T14:42:08.960Z,512
2017-01-07T14:43:14.589Z,528
2017-01-07T14:44:18.794Z,520
2017-01-07T14:45:23.990Z,480
2017-01-07T14:46:30.199Z,500
2017-01-07T14:47:36.355Z,468
2017-01-07T14:48:41.558Z,476
2017-01-07T14:49:47.716Z,460
2017-01-07T14:50:53.888Z,488
2017-01-07T14:52:00.062Z,476
2017-01-07T14:53:05.255Z,472
2017-01-07T14:54:10.462Z,464
2017-01-07T14:55:16.622Z,436
2017-01-07T14:56:21.954Z,416
2017-01-07T14:57:28.108Z,396
2017-01-07T14:58:34.291Z,368
2017-01-07T14:59:39.490Z,384
2017-01-07T15:00:45.650Z,376
2017-01-07T15:01:50.817Z,376
2017-01-07T15:02:55.044Z,392
2017-01-07T15:04:00.252Z,388
2017-01-07T15:05:05.453Z,368
2017-01-07T15:06:10.642Z,332
2017-01-07T15:07:16.812Z,332
2017-01-07T15:08:21.980Z,316
2017-01-07T15:09:26.182Z,272
2017-01-07T15:10:31.349Z,272
2017-01-07T15:11:36.582Z,264
2017-01-07T15:12:42.750Z,248
2017-01-07T15:13:49.032Z,236
2017-01-07T15:14:55.193Z,220
2017-01-07T15:16:00.355Z,208
2017-01-07T15:17:05.548Z,200
2017-01-07T15:18:11.724Z,196
2017-01-07T15:19:17.984Z,184
2017-01-07T15:20:24.144Z,184
2017-01-07T15:21:30.411Z,160
2017-01-07T15:22:36.569Z,152
2017-01-07T15:23:42.757Z,144